This is the latest recevied weather packets stored in our database for station/object YD2UMH-10. If no packets are shown the sender has not sent any weather packets the latest 10 day(s).
| Time | Temp. | Humidity | Pressure | Rain* | Wind** | Luminosity | Snow |
|---|---|---|---|---|---|---|---|
| 1778059751 | 32.78° C | 99% | 987 hPa | - | - | 0 W/m² | - |
| 1778059429 | 32.78° C | 99% | 987 hPa | - | - | 0 W/m² | - |
| 1778059107 | 32.78° C | 99% | 987 hPa | - | - | 0 W/m² | - |
| 1778058785 | 32.78° C | 99% | 987 hPa | - | - | 0 W/m² | - |
| 1778058463 | 33.33° C | 99% | 987 hPa | - | - | 0 W/m² | - |
| 1778058141 | 33.33° C | 99% | 987 hPa | - | - | 0 W/m² | - |
| 1778057819 | 33.89° C | 99% | 987 hPa | - | - | 0 W/m² | - |
| 1778057497 | 33.33° C | 99% | 987 hPa | - | - | 0 W/m² | - |
| 1778057175 | 33.33° C | 99% | 987 hPa | - | - | 0 W/m² | - |
| 1778056853 | 34.44° C | 99% | 987 hPa | - | - | 0 W/m² | - |
| 1778056531 | 34.44° C | 99% | 987 hPa | - | - | 0 W/m² | - |
| 1778056209 | 34.44° C | 99% | 987 hPa | - | - | 0 W/m² | - |
| 1778055887 | 36.11° C | 99% | 987 hPa | - | - | 0 W/m² | - |
| 1778055565 | 37.22° C | 99% | 987 hPa | - | - | 0 W/m² | - |
| 1778055243 | 38.89° C | 80% | 987 hPa | - | - | 0 W/m² | - |
| 1778054921 | 38.33° C | 72% | 987 hPa | - | - | 0 W/m² | - |
| 1778054599 | 40° C | 66% | 987 hPa | - | - | 0 W/m² | - |
| 1778054276 | 38.89° C | 70% | 987 hPa | - | - | 0 W/m² | - |
| 1778053955 | 37.22° C | 73% | 987 hPa | - | - | 0 W/m² | - |
| 1778053633 | 39.44° C | 67% | 987 hPa | - | - | 0 W/m² | - |
| 1778053311 | 40.56° C | 65% | 987 hPa | - | - | 0 W/m² | - |
| 1778052989 | 38.33° C | 71% | 987 hPa | - | - | 0 W/m² | - |
| 1778052667 | 37.78° C | 74% | 987 hPa | - | - | 0 W/m² | - |
| 1778052345 | 37.22° C | 77% | 987 hPa | - | - | 0 W/m² | - |
| 1778052023 | 36.67° C | 74% | 987 hPa | - | - | 0 W/m² | - |
* Rain since midnight (hover to see other rain measurements)
** Current wind speed in m/s (hover to see current wind gust speed)